Portada
METAR-TAF:

METAR-TAF

Aeroports :

Dawson Community Airport

Glendive, Montana, Estats Units d'Amèrica

latitud: 47-08N, longitud: 104-48W, altitud: 749 m

Observació

L'informe es va fer fa 1 hora i 0 minuts, a les 03:56 UTC
Vent 9 kt del Nord/Nord-Oest
Temperatura 15°C
Humitat 48%
Pressió 1012 hPa
Visibilitat: 16.1 km
Cel clar

METAR: KGDV 040356Z AUTO 34009KT 10SM CLR 15/04 A2987 RMK AO2 SLP104 T01500044

Hora: 22:56 (04:56 UTC)

Pronòstic

L'informe es va fer fa 5 hores i 36 minuts, a les 23:20 UTC
Pronòstic vàlid del 04 a les 00 UTC al 04 a les 24 UTC
Vent 13 kt del Nord-Oest
Visibilitat: 10 km
Escasses núvols a una alçada de 18000 ft
A partir de les 04 a les 0300 UTC
Vent 6 kt amb direcció variable
Visibilitat: 10 km
Escasses núvols a una alçada de 15000 ft

TAF: KGDV 032320Z 0400/0424 32013KT P6SM FEW180 FM040300 VRB06KT P6SM FEW150

Observacions i pronòstics meteorològics de més de 4000 aeroports (METAR i TAF).

Les estacions disponibles són els punts grocs i vermells al mapa.

Posi el ratolí al punt desitjat per veure el nom de l'estació.

Feu clic per veure les observacions i els pronòstics meteorològics.

Per canviar el mapa: feu clic els botons verds amb una creu de color negre per apropar; al botó verd amb un guió per allunyar la imatge; o en les fletxes verdes per a mapes adjacents.


METAR-TAF: